Portada
METAR-TAF:

METAR-TAF

Aeroports :

Komatsujima, Japó

latitud: 34-00N, longitud: 134-38E, altitud: 3 m

Observació

L'informe es va fer fa 2 hores i 18 minuts, a les 10:11 UTC
Vent 12 kt del Oest/Sud-Oest, variant entre Oest/Sud-Oest i Oest/Nord-Oest
Temperatura 24°C
Humitat 74%
Pressió 1005 hPa
Visibilitat 10 km o més
Escasses núvols a una alçada de 3000 ft
Cel ennuvolat a una alçada de 13000 ft

METAR: RJOP 031011Z 25012KT 240V300 9999 FEW030 BKN130 24/19 Q1005 RMK 1CU030 7AC130 A2968

Hora: 21:29 (12:29 UTC)


TAF: manca

Observacions i pronòstics meteorològics de més de 4000 aeroports (METAR i TAF).

Les estacions disponibles són els punts grocs i vermells al mapa.

Posi el ratolí al punt desitjat per veure el nom de l'estació.

Feu clic per veure les observacions i els pronòstics meteorològics.

Per canviar el mapa: feu clic els botons verds amb una creu de color negre per apropar; al botó verd amb un guió per allunyar la imatge; o en les fletxes verdes per a mapes adjacents.


METAR-TAF: